Woolstock, Iowa
Current Conditions -  °F | °C
As of 3:35 AM on Monday 20 Oct 2014 (Local Time) from KEBS Reporting Station
Clear Clear  
Wind Chill: 42°   Ceiling: Unl
Heat Index: 46°   Visibility: 10mi
Dew Point: 41°   Wind: 8mph
Humidity: 81%   Direction: 340°NNW
Pressure: 29.94"   Gusts: NA
Location:  42.57°N, 93.84°W
Report Text: KEBS 200835Z AUTO 34007KT 10SM CLR 08/05 A2994 RMK AO2
Loading
Personal Weather Stations






























Interactive Weather Map
Tropical Storm Tracking
New forecast layout! Learn more

10-Day Weather Forecast

Advertisements
Track Severe Weather on mobile